sensor_id;sensor_type;location;lat;lon;timestamp;P1;durP1;ratioP1;P2;durP2;ratioP2
20476;SDS011;10397;50.948;11.092;2022-08-24T00:02:20;3.70;;;2.17;;
20476;SDS011;10397;50.948;11.092;2022-08-24T00:04:51;3.27;;;2.30;;
20476;SDS011;10397;50.948;11.092;2022-08-24T00:07:22;3.65;;;2.52;;
20476;SDS011;10397;50.948;11.092;2022-08-24T00:09:53;4.85;;;1.72;;
20476;SDS011;10397;50.948;11.092;2022-08-24T00:12:25;4.45;;;2.12;;
20476;SDS011;10397;50.948;11.092;2022-08-24T00:14:56;2.45;;;2.05;;
20476;SDS011;10397;50.948;11.092;2022-08-24T00:17:27;3.95;;;1.70;;
20476;SDS011;10397;50.948;11.092;2022-08-24T00:19:59;3.35;;;2.20;;
20476;SDS011;10397;50.948;11.092;2022-08-24T00:22:29;6.80;;;1.70;;
20476;SDS011;10397;50.948;11.092;2022-08-24T00:25:00;2.25;;;1.75;;
20476;SDS011;10397;50.948;11.092;2022-08-24T00:27:32;4.17;;;1.80;;
20476;SDS011;10397;50.948;11.092;2022-08-24T00:30:05;2.25;;;2.05;;
20476;SDS011;10397;50.948;11.092;2022-08-24T00:32:34;3.58;;;1.87;;
20476;SDS011;10397;50.948;11.092;2022-08-24T00:35:05;4.90;;;2.13;;
20476;SDS011;10397;50.948;11.092;2022-08-24T00:37:36;3.60;;;2.30;;
20476;SDS011;10397;50.948;11.092;2022-08-24T00:40:08;3.42;;;2.20;;
20476;SDS011;10397;50.948;11.092;2022-08-24T00:42:38;2.00;;;1.47;;
20476;SDS011;10397;50.948;11.092;2022-08-24T00:45:10;2.40;;;1.87;;
20476;SDS011;10397;50.948;11.092;2022-08-24T00:47:43;3.15;;;1.92;;
20476;SDS011;10397;50.948;11.092;2022-08-24T00:50:17;2.77;;;1.83;;
20476;SDS011;10397;50.948;11.092;2022-08-24T00:52:56;2.53;;;1.60;;
20476;SDS011;10397;50.948;11.092;2022-08-24T00:55:31;1.87;;;1.40;;
20476;SDS011;10397;50.948;11.092;2022-08-24T00:58:04;3.33;;;1.57;;
20476;SDS011;10397;50.948;11.092;2022-08-24T01:00:32;2.75;;;1.98;;
20476;SDS011;10397;50.948;11.092;2022-08-24T01:03:02;2.50;;;1.73;;
20476;SDS011;10397;50.948;11.092;2022-08-24T01:05:34;1.87;;;1.55;;
20476;SDS011;10397;50.948;11.092;2022-08-24T01:08:08;4.05;;;2.02;;
20476;SDS011;10397;50.948;11.092;2022-08-24T01:10:37;2.95;;;1.75;;
20476;SDS011;10397;50.948;11.092;2022-08-24T01:13:06;1.95;;;1.57;;
20476;SDS011;10397;50.948;11.092;2022-08-24T01:15:37;2.77;;;1.73;;
20476;SDS011;10397;50.948;11.092;2022-08-24T01:18:10;5.47;;;2.00;;
20476;SDS011;10397;50.948;11.092;2022-08-24T01:21:40;2.03;;;1.47;;
20476;SDS011;10397;50.948;11.092;2022-08-24T01:23:40;5.30;;;1.90;;
20476;SDS011;10397;50.948;11.092;2022-08-24T01:26:11;2.37;;;1.45;;
20476;SDS011;10397;50.948;11.092;2022-08-24T01:28:41;5.10;;;2.00;;
20476;SDS011;10397;50.948;11.092;2022-08-24T01:31:12;2.83;;;1.92;;
20476;SDS011;10397;50.948;11.092;2022-08-24T01:33:43;5.47;;;1.92;;
20476;SDS011;10397;50.948;11.092;2022-08-24T01:39:02;3.47;;;1.90;;
20476;SDS011;10397;50.948;11.092;2022-08-24T01:41:31;1.95;;;1.35;;
20476;SDS011;10397;50.948;11.092;2022-08-24T01:44:03;3.00;;;1.55;;
20476;SDS011;10397;50.948;11.092;2022-08-24T01:46:34;2.15;;;1.30;;
20476;SDS011;10397;50.948;11.092;2022-08-24T01:49:05;2.67;;;1.40;;
20476;SDS011;10397;50.948;11.092;2022-08-24T01:51:36;3.15;;;1.40;;
20476;SDS011;10397;50.948;11.092;2022-08-24T01:54:07;2.30;;;1.27;;
20476;SDS011;10397;50.948;11.092;2022-08-24T01:56:39;3.22;;;1.62;;
20476;SDS011;10397;50.948;11.092;2022-08-24T01:59:10;3.90;;;1.83;;
20476;SDS011;10397;50.948;11.092;2022-08-24T02:01:42;2.92;;;2.30;;
20476;SDS011;10397;50.948;11.092;2022-08-24T02:04:12;4.80;;;1.70;;
20476;SDS011;10397;50.948;11.092;2022-08-24T02:06:43;2.30;;;1.77;;
20476;SDS011;10397;50.948;11.092;2022-08-24T02:09:15;3.40;;;2.30;;
20476;SDS011;10397;50.948;11.092;2022-08-24T02:11:46;3.70;;;2.17;;
20476;SDS011;10397;50.948;11.092;2022-08-24T02:14:18;4.97;;;1.98;;
20476;SDS011;10397;50.948;11.092;2022-08-24T02:16:49;4.12;;;1.82;;
20476;SDS011;10397;50.948;11.092;2022-08-24T02:19:21;5.87;;;1.98;;
20476;SDS011;10397;50.948;11.092;2022-08-24T02:21:51;3.27;;;1.40;;
20476;SDS011;10397;50.948;11.092;2022-08-24T02:24:22;3.42;;;1.90;;
20476;SDS011;10397;50.948;11.092;2022-08-24T02:26:54;3.12;;;1.67;;
20476;SDS011;10397;50.948;11.092;2022-08-24T02:29:25;3.35;;;1.82;;
20476;SDS011;10397;50.948;11.092;2022-08-24T02:31:56;4.87;;;1.87;;
20476;SDS011;10397;50.948;11.092;2022-08-24T02:34:27;5.97;;;2.05;;
20476;SDS011;10397;50.948;11.092;2022-08-24T02:36:59;3.90;;;2.33;;
20476;SDS011;10397;50.948;11.092;2022-08-24T02:39:30;3.37;;;1.90;;
20476;SDS011;10397;50.948;11.092;2022-08-24T02:42:01;2.70;;;1.52;;
20476;SDS011;10397;50.948;11.092;2022-08-24T02:44:32;3.03;;;1.80;;
20476;SDS011;10397;50.948;11.092;2022-08-24T02:47:03;3.37;;;1.33;;
20476;SDS011;10397;50.948;11.092;2022-08-24T02:49:34;3.67;;;1.50;;
20476;SDS011;10397;50.948;11.092;2022-08-24T02:52:05;4.58;;;1.92;;
20476;SDS011;10397;50.948;11.092;2022-08-24T02:54:37;3.70;;;1.60;;
20476;SDS011;10397;50.948;11.092;2022-08-24T02:57:08;4.20;;;2.05;;
20476;SDS011;10397;50.948;11.092;2022-08-24T02:59:39;3.20;;;1.72;;
20476;SDS011;10397;50.948;11.092;2022-08-24T03:02:11;3.05;;;1.90;;
20476;SDS011;10397;50.948;11.092;2022-08-24T03:04:43;4.45;;;1.30;;
20476;SDS011;10397;50.948;11.092;2022-08-24T03:07:14;3.62;;;1.55;;
20476;SDS011;10397;50.948;11.092;2022-08-24T03:09:46;4.97;;;1.65;;
20476;SDS011;10397;50.948;11.092;2022-08-24T03:12:16;2.50;;;1.40;;
20476;SDS011;10397;50.948;11.092;2022-08-24T03:14:48;3.07;;;1.30;;
20476;SDS011;10397;50.948;11.092;2022-08-24T03:17:19;3.95;;;1.92;;
20476;SDS011;10397;50.948;11.092;2022-08-24T03:19:50;4.08;;;1.75;;
20476;SDS011;10397;50.948;11.092;2022-08-24T03:22:22;4.12;;;1.50;;
20476;SDS011;10397;50.948;11.092;2022-08-24T03:24:53;2.75;;;1.35;;
20476;SDS011;10397;50.948;11.092;2022-08-24T03:27:25;4.47;;;1.57;;
20476;SDS011;10397;50.948;11.092;2022-08-24T03:29:57;2.95;;;1.60;;
20476;SDS011;10397;50.948;11.092;2022-08-24T03:32:28;3.20;;;1.62;;
20476;SDS011;10397;50.948;11.092;2022-08-24T03:35:00;2.80;;;1.30;;
20476;SDS011;10397;50.948;11.092;2022-08-24T03:37:31;5.53;;;1.67;;
20476;SDS011;10397;50.948;11.092;2022-08-24T03:40:03;1.77;;;1.37;;
20476;SDS011;10397;50.948;11.092;2022-08-24T03:42:33;1.93;;;1.20;;
20476;SDS011;10397;50.948;11.092;2022-08-24T03:45:05;2.58;;;1.32;;
20476;SDS011;10397;50.948;11.092;2022-08-24T03:47:36;2.17;;;1.27;;
20476;SDS011;10397;50.948;11.092;2022-08-24T03:50:08;4.35;;;1.75;;
20476;SDS011;10397;50.948;11.092;2022-08-24T03:52:39;1.80;;;1.60;;
20476;SDS011;10397;50.948;11.092;2022-08-24T03:55:10;4.75;;;1.37;;
20476;SDS011;10397;50.948;11.092;2022-08-24T03:57:42;7.17;;;1.50;;
20476;SDS011;10397;50.948;11.092;2022-08-24T04:00:13;3.52;;;1.22;;
20476;SDS011;10397;50.948;11.092;2022-08-24T04:02:44;2.15;;;1.25;;
20476;SDS011;10397;50.948;11.092;2022-08-24T04:05:16;4.25;;;1.45;;
20476;SDS011;10397;50.948;11.092;2022-08-24T04:07:47;2.15;;;1.20;;
20476;SDS011;10397;50.948;11.092;2022-08-24T04:10:18;2.92;;;1.47;;
20476;SDS011;10397;50.948;11.092;2022-08-24T04:12:50;3.58;;;1.45;;
20476;SDS011;10397;50.948;11.092;2022-08-24T04:15:21;3.25;;;1.42;;
20476;SDS011;10397;50.948;11.092;2022-08-24T04:17:52;2.15;;;1.30;;
20476;SDS011;10397;50.948;11.092;2022-08-24T04:20:24;3.60;;;1.60;;
20476;SDS011;10397;50.948;11.092;2022-08-24T04:22:55;3.15;;;1.40;;
20476;SDS011;10397;50.948;11.092;2022-08-24T04:25:27;2.90;;;1.27;;
20476;SDS011;10397;50.948;11.092;2022-08-24T04:27:59;6.30;;;1.22;;
20476;SDS011;10397;50.948;11.092;2022-08-24T04:30:30;2.72;;;1.40;;
20476;SDS011;10397;50.948;11.092;2022-08-24T04:33:02;4.28;;;1.60;;
20476;SDS011;10397;50.948;11.092;2022-08-24T04:35:37;5.15;;;1.70;;
20476;SDS011;10397;50.948;11.092;2022-08-24T04:38:07;4.10;;;1.90;;
20476;SDS011;10397;50.948;11.092;2022-08-24T04:40:38;3.50;;;1.63;;
20476;SDS011;10397;50.948;11.092;2022-08-24T04:43:08;2.70;;;1.62;;
20476;SDS011;10397;50.948;11.092;2022-08-24T04:45:39;4.50;;;1.73;;
20476;SDS011;10397;50.948;11.092;2022-08-24T04:48:10;3.25;;;1.90;;
20476;SDS011;10397;50.948;11.092;2022-08-24T04:50:41;2.37;;;1.87;;
20476;SDS011;10397;50.948;11.092;2022-08-24T04:53:11;4.80;;;1.82;;
20476;SDS011;10397;50.948;11.092;2022-08-24T04:55:43;6.40;;;1.83;;
20476;SDS011;10397;50.948;11.092;2022-08-24T04:58:13;3.08;;;1.45;;
20476;SDS011;10397;50.948;11.092;2022-08-24T05:00:44;2.52;;;1.52;;
20476;SDS011;10397;50.948;11.092;2022-08-24T05:03:15;2.67;;;1.60;;
20476;SDS011;10397;50.948;11.092;2022-08-24T05:05:48;2.40;;;1.90;;
20476;SDS011;10397;50.948;11.092;2022-08-24T05:08:18;3.40;;;1.42;;
20476;SDS011;10397;50.948;11.092;2022-08-24T05:10:50;2.55;;;1.62;;
20476;SDS011;10397;50.948;11.092;2022-08-24T05:13:21;4.33;;;1.85;;
20476;SDS011;10397;50.948;11.092;2022-08-24T05:15:52;4.33;;;2.05;;
20476;SDS011;10397;50.948;11.092;2022-08-24T05:18:24;1.72;;;1.60;;
20476;SDS011;10397;50.948;11.092;2022-08-24T05:20:55;5.70;;;2.02;;
20476;SDS011;10397;50.948;11.092;2022-08-24T05:23:27;2.85;;;1.90;;
20476;SDS011;10397;50.948;11.092;2022-08-24T05:26:12;3.37;;;1.85;;
20476;SDS011;10397;50.948;11.092;2022-08-24T05:28:41;3.93;;;1.93;;
20476;SDS011;10397;50.948;11.092;2022-08-24T05:31:13;4.33;;;2.50;;
20476;SDS011;10397;50.948;11.092;2022-08-24T05:33:44;4.80;;;2.37;;
20476;SDS011;10397;50.948;11.092;2022-08-24T05:36:21;2.60;;;1.50;;
20476;SDS011;10397;50.948;11.092;2022-08-24T05:38:51;2.77;;;1.50;;
20476;SDS011;10397;50.948;11.092;2022-08-24T05:41:22;3.85;;;2.10;;
20476;SDS011;10397;50.948;11.092;2022-08-24T05:43:52;2.33;;;1.53;;
20476;SDS011;10397;50.948;11.092;2022-08-24T05:46:23;4.55;;;1.60;;
20476;SDS011;10397;50.948;11.092;2022-08-24T05:48:54;5.23;;;1.70;;
20476;SDS011;10397;50.948;11.092;2022-08-24T05:51:25;4.70;;;1.85;;
20476;SDS011;10397;50.948;11.092;2022-08-24T05:53:56;2.60;;;2.03;;
20476;SDS011;10397;50.948;11.092;2022-08-24T05:56:26;4.75;;;1.80;;
20476;SDS011;10397;50.948;11.092;2022-08-24T05:58:58;3.10;;;1.80;;
20476;SDS011;10397;50.948;11.092;2022-08-24T06:01:29;2.50;;;2.00;;
20476;SDS011;10397;50.948;11.092;2022-08-24T06:04:00;6.42;;;2.22;;
20476;SDS011;10397;50.948;11.092;2022-08-24T06:06:31;4.83;;;2.50;;
20476;SDS011;10397;50.948;11.092;2022-08-24T06:09:03;3.33;;;1.85;;
20476;SDS011;10397;50.948;11.092;2022-08-24T06:11:35;5.23;;;1.70;;
20476;SDS011;10397;50.948;11.092;2022-08-24T06:14:06;4.00;;;1.87;;
20476;SDS011;10397;50.948;11.092;2022-08-24T06:16:35;2.97;;;2.07;;
20476;SDS011;10397;50.948;11.092;2022-08-24T06:19:07;5.12;;;2.40;;
20476;SDS011;10397;50.948;11.092;2022-08-24T06:21:37;4.60;;;2.25;;
20476;SDS011;10397;50.948;11.092;2022-08-24T06:24:08;5.13;;;1.77;;
20476;SDS011;10397;50.948;11.092;2022-08-24T06:26:39;4.55;;;1.92;;
20476;SDS011;10397;50.948;11.092;2022-08-24T06:29:28;4.53;;;1.90;;
20476;SDS011;10397;50.948;11.092;2022-08-24T06:31:59;2.08;;;1.52;;
20476;SDS011;10397;50.948;11.092;2022-08-24T06:34:31;3.62;;;1.80;;
20476;SDS011;10397;50.948;11.092;2022-08-24T06:37:02;4.95;;;2.58;;
20476;SDS011;10397;50.948;11.092;2022-08-24T06:39:34;3.72;;;1.77;;
20476;SDS011;10397;50.948;11.092;2022-08-24T06:42:05;4.28;;;2.27;;
20476;SDS011;10397;50.948;11.092;2022-08-24T06:44:37;6.05;;;2.15;;
20476;SDS011;10397;50.948;11.092;2022-08-24T06:47:08;6.22;;;2.08;;
20476;SDS011;10397;50.948;11.092;2022-08-24T06:49:38;5.53;;;1.77;;
20476;SDS011;10397;50.948;11.092;2022-08-24T06:52:10;5.12;;;2.22;;
20476;SDS011;10397;50.948;11.092;2022-08-24T06:54:41;9.25;;;1.92;;
20476;SDS011;10397;50.948;11.092;2022-08-24T06:57:12;5.92;;;1.90;;
20476;SDS011;10397;50.948;11.092;2022-08-24T06:59:44;3.95;;;1.67;;
20476;SDS011;10397;50.948;11.092;2022-08-24T07:02:15;2.90;;;1.82;;
20476;SDS011;10397;50.948;11.092;2022-08-24T07:04:46;3.47;;;1.85;;
20476;SDS011;10397;50.948;11.092;2022-08-24T07:07:17;4.35;;;1.95;;
20476;SDS011;10397;50.948;11.092;2022-08-24T07:09:49;3.55;;;2.15;;
20476;SDS011;10397;50.948;11.092;2022-08-24T07:12:20;4.97;;;2.47;;
20476;SDS011;10397;50.948;11.092;2022-08-24T07:14:52;4.12;;;2.35;;
20476;SDS011;10397;50.948;11.092;2022-08-24T07:17:23;5.12;;;2.22;;
20476;SDS011;10397;50.948;11.092;2022-08-24T07:19:55;7.40;;;3.12;;
20476;SDS011;10397;50.948;11.092;2022-08-24T07:22:26;7.45;;;2.70;;
20476;SDS011;10397;50.948;11.092;2022-08-24T07:24:58;3.87;;;2.37;;
20476;SDS011;10397;50.948;11.092;2022-08-24T07:27:29;7.12;;;2.42;;
20476;SDS011;10397;50.948;11.092;2022-08-24T07:30:01;9.23;;;2.30;;
20476;SDS011;10397;50.948;11.092;2022-08-24T07:32:32;15.53;;;2.72;;
20476;SDS011;10397;50.948;11.092;2022-08-24T07:35:04;11.73;;;2.77;;
20476;SDS011;10397;50.948;11.092;2022-08-24T07:37:34;8.63;;;2.27;;
20476;SDS011;10397;50.948;11.092;2022-08-24T07:40:06;10.48;;;2.00;;
20476;SDS011;10397;50.948;11.092;2022-08-24T07:42:36;9.50;;;2.70;;
20476;SDS011;10397;50.948;11.092;2022-08-24T07:45:08;5.58;;;2.25;;
20476;SDS011;10397;50.948;11.092;2022-08-24T07:47:39;7.75;;;1.80;;
20476;SDS011;10397;50.948;11.092;2022-08-24T07:50:15;6.17;;;1.98;;
20476;SDS011;10397;50.948;11.092;2022-08-24T07:52:42;12.05;;;2.58;;
20476;SDS011;10397;50.948;11.092;2022-08-24T07:55:12;5.67;;;1.83;;
20476;SDS011;10397;50.948;11.092;2022-08-24T07:57:43;6.97;;;1.70;;
20476;SDS011;10397;50.948;11.092;2022-08-24T08:00:15;8.23;;;2.40;;
20476;SDS011;10397;50.948;11.092;2022-08-24T08:02:45;9.67;;;2.10;;
20476;SDS011;10397;50.948;11.092;2022-08-24T08:05:18;5.40;;;1.75;;
20476;SDS011;10397;50.948;11.092;2022-08-24T08:07:47;9.70;;;1.67;;
20476;SDS011;10397;50.948;11.092;2022-08-24T08:10:18;5.22;;;2.00;;
20476;SDS011;10397;50.948;11.092;2022-08-24T08:12:48;6.90;;;1.90;;
20476;SDS011;10397;50.948;11.092;2022-08-24T08:15:19;3.80;;;1.80;;
20476;SDS011;10397;50.948;11.092;2022-08-24T08:17:51;4.25;;;1.80;;
20476;SDS011;10397;50.948;11.092;2022-08-24T08:20:22;8.98;;;2.02;;
20476;SDS011;10397;50.948;11.092;2022-08-24T08:22:53;8.18;;;2.12;;
20476;SDS011;10397;50.948;11.092;2022-08-24T08:25:52;9.23;;;2.37;;
20476;SDS011;10397;50.948;11.092;2022-08-24T08:28:18;4.23;;;2.10;;
20476;SDS011;10397;50.948;11.092;2022-08-24T08:30:49;4.92;;;2.25;;
20476;SDS011;10397;50.948;11.092;2022-08-24T08:33:21;5.87;;;2.20;;
20476;SDS011;10397;50.948;11.092;2022-08-24T08:35:56;2.87;;;1.75;;
20476;SDS011;10397;50.948;11.092;2022-08-24T08:38:32;5.27;;;1.90;;
20476;SDS011;10397;50.948;11.092;2022-08-24T08:43:49;5.17;;;2.47;;
20476;SDS011;10397;50.948;11.092;2022-08-24T08:54:45;2.17;;;1.93;;
20476;SDS011;10397;50.948;11.092;2022-08-24T08:57:21;5.33;;;2.15;;
20476;SDS011;10397;50.948;11.092;2022-08-24T09:02:55;3.60;;;1.80;;
20476;SDS011;10397;50.948;11.092;2022-08-24T09:17:14;6.93;;;1.60;;
20476;SDS011;10397;50.948;11.092;2022-08-24T09:22:37;3.33;;;1.80;;
20476;SDS011;10397;50.948;11.092;2022-08-24T09:25:55;5.53;;;1.80;;
20476;SDS011;10397;50.948;11.092;2022-08-24T09:28:02;6.60;;;1.93;;
20476;SDS011;10397;50.948;11.092;2022-08-24T09:33:27;12.00;;;1.80;;
20476;SDS011;10397;50.948;11.092;2022-08-24T09:38:55;2.53;;;2.00;;
20476;SDS011;10397;50.948;11.092;2022-08-24T09:44:56;4.10;;;2.07;;
20476;SDS011;10397;50.948;11.092;2022-08-24T09:56:17;6.27;;;2.10;;
20476;SDS011;10397;50.948;11.092;2022-08-24T10:04:09;17.50;;;2.70;;
20476;SDS011;10397;50.948;11.092;2022-08-24T10:06:40;5.22;;;1.75;;
20476;SDS011;10397;50.948;11.092;2022-08-24T10:09:35;4.63;;;1.50;;
20476;SDS011;10397;50.948;11.092;2022-08-24T10:12:32;8.97;;;1.70;;
20476;SDS011;10397;50.948;11.092;2022-08-24T10:15:05;5.53;;;1.40;;
20476;SDS011;10397;50.948;11.092;2022-08-24T10:17:42;6.33;;;1.67;;
20476;SDS011;10397;50.948;11.092;2022-08-24T10:20:44;3.93;;;1.60;;
20476;SDS011;10397;50.948;11.092;2022-08-24T10:34:45;6.63;;;1.73;;
20476;SDS011;10397;50.948;11.092;2022-08-24T10:37:35;2.73;;;1.10;;
20476;SDS011;10397;50.948;11.092;2022-08-24T10:40:21;6.73;;;1.67;;
20476;SDS011;10397;50.948;11.092;2022-08-24T10:43:11;5.37;;;1.50;;
20476;SDS011;10397;50.948;11.092;2022-08-24T10:49:04;4.17;;;1.70;;
20476;SDS011;10397;50.948;11.092;2022-08-24T10:51:42;5.23;;;1.73;;
20476;SDS011;10397;50.948;11.092;2022-08-24T10:54:11;4.50;;;1.50;;
20476;SDS011;10397;50.948;11.092;2022-08-24T10:56:55;5.28;;;1.50;;
20476;SDS011;10397;50.948;11.092;2022-08-24T10:59:33;2.83;;;1.40;;
20476;SDS011;10397;50.948;11.092;2022-08-24T11:02:27;4.23;;;1.47;;
20476;SDS011;10397;50.948;11.092;2022-08-24T11:04:41;2.00;;;1.22;;
20476;SDS011;10397;50.948;11.092;2022-08-24T11:07:19;6.95;;;1.92;;
20476;SDS011;10397;50.948;11.092;2022-08-24T11:09:58;5.87;;;1.43;;
20476;SDS011;10397;50.948;11.092;2022-08-24T11:12:27;3.83;;;1.37;;
20476;SDS011;10397;50.948;11.092;2022-08-24T11:15:03;13.37;;;2.40;;
20476;SDS011;10397;50.948;11.092;2022-08-24T11:17:31;5.00;;;1.30;;
20476;SDS011;10397;50.948;11.092;2022-08-24T11:20:03;4.37;;;1.30;;
20476;SDS011;10397;50.948;11.092;2022-08-24T11:22:39;4.75;;;1.27;;
20476;SDS011;10397;50.948;11.092;2022-08-24T11:25:16;3.50;;;1.50;;
20476;SDS011;10397;50.948;11.092;2022-08-24T11:28:02;3.60;;;1.27;;
20476;SDS011;10397;50.948;11.092;2022-08-24T11:30:28;7.05;;;1.50;;
20476;SDS011;10397;50.948;11.092;2022-08-24T11:33:00;3.83;;;1.20;;
20476;SDS011;10397;50.948;11.092;2022-08-24T11:38:05;3.58;;;1.22;;
20476;SDS011;10397;50.948;11.092;2022-08-24T11:40:43;4.57;;;1.13;;
20476;SDS011;10397;50.948;11.092;2022-08-24T11:48:53;5.70;;;1.60;;
20476;SDS011;10397;50.948;11.092;2022-08-24T11:51:33;3.90;;;1.57;;
20476;SDS011;10397;50.948;11.092;2022-08-24T11:54:13;2.83;;;1.60;;
20476;SDS011;10397;50.948;11.092;2022-08-24T11:57:17;5.97;;;1.30;;
20476;SDS011;10397;50.948;11.092;2022-08-24T11:59:54;5.27;;;1.40;;
20476;SDS011;10397;50.948;11.092;2022-08-24T12:08:08;6.90;;;1.30;;
20476;SDS011;10397;50.948;11.092;2022-08-24T12:10:54;4.67;;;1.47;;
20476;SDS011;10397;50.948;11.092;2022-08-24T12:16:15;6.97;;;1.60;;
20476;SDS011;10397;50.948;11.092;2022-08-24T12:18:59;5.13;;;1.60;;
20476;SDS011;10397;50.948;11.092;2022-08-24T12:21:29;4.70;;;1.42;;
20476;SDS011;10397;50.948;11.092;2022-08-24T12:23:59;6.17;;;1.00;;
20476;SDS011;10397;50.948;11.092;2022-08-24T12:26:40;2.47;;;1.13;;
20476;SDS011;10397;50.948;11.092;2022-08-24T12:29:15;3.30;;;1.27;;
20476;SDS011;10397;50.948;11.092;2022-08-24T12:31:49;5.97;;;1.00;;
20476;SDS011;10397;50.948;11.092;2022-08-24T12:34:29;2.93;;;1.10;;
20476;SDS011;10397;50.948;11.092;2022-08-24T12:37:00;3.63;;;1.20;;
20476;SDS011;10397;50.948;11.092;2022-08-24T12:39:30;2.67;;;1.00;;
20476;SDS011;10397;50.948;11.092;2022-08-24T12:42:03;3.70;;;1.12;;
20476;SDS011;10397;50.948;11.092;2022-08-24T12:44:44;2.33;;;0.87;;
20476;SDS011;10397;50.948;11.092;2022-08-24T12:47:17;2.50;;;1.13;;
20476;SDS011;10397;50.948;11.092;2022-08-24T12:49:49;3.30;;;1.05;;
20476;SDS011;10397;50.948;11.092;2022-08-24T12:52:20;10.17;;;1.50;;
20476;SDS011;10397;50.948;11.092;2022-08-24T12:54:55;7.47;;;1.37;;
20476;SDS011;10397;50.948;11.092;2022-08-24T12:57:51;3.03;;;1.03;;
20476;SDS011;10397;50.948;11.092;2022-08-24T13:00:26;2.67;;;1.20;;
20476;SDS011;10397;50.948;11.092;2022-08-24T13:02:58;5.55;;;0.93;;
20476;SDS011;10397;50.948;11.092;2022-08-24T13:05:38;1.82;;;0.98;;
20476;SDS011;10397;50.948;11.092;2022-08-24T13:08:20;4.37;;;1.43;;
20476;SDS011;10397;50.948;11.092;2022-08-24T13:10:50;3.00;;;1.10;;
20476;SDS011;10397;50.948;11.092;2022-08-24T13:13:18;13.70;;;1.47;;
20476;SDS011;10397;50.948;11.092;2022-08-24T13:15:50;2.42;;;1.10;;
20476;SDS011;10397;50.948;11.092;2022-08-24T13:23:21;3.90;;;1.20;;
20476;SDS011;10397;50.948;11.092;2022-08-24T13:28:47;6.50;;;1.17;;
20476;SDS011;10397;50.948;11.092;2022-08-24T13:31:37;6.33;;;1.50;;
20476;SDS011;10397;50.948;11.092;2022-08-24T13:50:37;2.87;;;1.13;;
20476;SDS011;10397;50.948;11.092;2022-08-24T13:56:20;3.73;;;0.80;;
20476;SDS011;10397;50.948;11.092;2022-08-24T13:59:06;3.30;;;0.87;;
20476;SDS011;10397;50.948;11.092;2022-08-24T14:06:59;4.33;;;0.90;;
20476;SDS011;10397;50.948;11.092;2022-08-24T14:15:02;4.22;;;1.12;;
20476;SDS011;10397;50.948;11.092;2022-08-24T14:23:47;5.00;;;1.20;;
20476;SDS011;10397;50.948;11.092;2022-08-24T14:34:34;2.60;;;0.90;;
20476;SDS011;10397;50.948;11.092;2022-08-24T14:37:23;6.83;;;1.43;;
20476;SDS011;10397;50.948;11.092;2022-08-24T14:42:54;5.83;;;1.47;;
20476;SDS011;10397;50.948;11.092;2022-08-24T14:52:03;5.20;;;1.13;;
20476;SDS011;10397;50.948;11.092;2022-08-24T14:53:53;26.07;;;2.30;;
20476;SDS011;10397;50.948;11.092;2022-08-24T14:59:23;9.43;;;1.53;;
20476;SDS011;10397;50.948;11.092;2022-08-24T15:05:35;15.03;;;1.60;;
20476;SDS011;10397;50.948;11.092;2022-08-24T15:07:24;10.82;;;1.60;;
20476;SDS011;10397;50.948;11.092;2022-08-24T15:09:58;10.77;;;1.63;;
20476;SDS011;10397;50.948;11.092;2022-08-24T15:12:34;6.95;;;1.02;;
20476;SDS011;10397;50.948;11.092;2022-08-24T15:17:44;10.83;;;1.40;;
20476;SDS011;10397;50.948;11.092;2022-08-24T15:20:19;3.58;;;1.10;;
20476;SDS011;10397;50.948;11.092;2022-08-24T15:22:50;6.00;;;1.30;;
20476;SDS011;10397;50.948;11.092;2022-08-24T15:25:35;2.45;;;1.42;;
20476;SDS011;10397;50.948;11.092;2022-08-24T15:28:09;9.63;;;1.40;;
20476;SDS011;10397;50.948;11.092;2022-08-24T15:30:39;3.63;;;1.10;;
20476;SDS011;10397;50.948;11.092;2022-08-24T15:33:13;4.65;;;1.40;;
20476;SDS011;10397;50.948;11.092;2022-08-24T15:35:44;4.30;;;1.30;;
20476;SDS011;10397;50.948;11.092;2022-08-24T15:38:24;3.25;;;1.60;;
20476;SDS011;10397;50.948;11.092;2022-08-24T15:41:06;12.03;;;1.50;;
20476;SDS011;10397;50.948;11.092;2022-08-24T15:43:34;4.43;;;1.30;;
20476;SDS011;10397;50.948;11.092;2022-08-24T15:46:04;4.50;;;1.12;;
20476;SDS011;10397;50.948;11.092;2022-08-24T15:48:34;4.90;;;1.23;;
20476;SDS011;10397;50.948;11.092;2022-08-24T15:51:06;4.62;;;1.35;;
20476;SDS011;10397;50.948;11.092;2022-08-24T15:53:38;4.78;;;1.47;;
20476;SDS011;10397;50.948;11.092;2022-08-24T15:58:50;5.53;;;1.27;;
20476;SDS011;10397;50.948;11.092;2022-08-24T16:01:23;9.48;;;1.47;;
20476;SDS011;10397;50.948;11.092;2022-08-24T16:04:10;15.17;;;1.80;;
20476;SDS011;10397;50.948;11.092;2022-08-24T16:06:42;6.30;;;1.20;;
20476;SDS011;10397;50.948;11.092;2022-08-24T16:09:13;2.67;;;1.03;;
20476;SDS011;10397;50.948;11.092;2022-08-24T16:11:58;3.85;;;1.22;;
20476;SDS011;10397;50.948;11.092;2022-08-24T16:14:32;4.13;;;1.50;;
20476;SDS011;10397;50.948;11.092;2022-08-24T16:20:07;8.57;;;1.80;;
20476;SDS011;10397;50.948;11.092;2022-08-24T16:22:36;6.20;;;1.90;;
20476;SDS011;10397;50.948;11.092;2022-08-24T16:30:42;11.50;;;2.10;;
20476;SDS011;10397;50.948;11.092;2022-08-24T16:33:45;14.83;;;2.10;;
20476;SDS011;10397;50.948;11.092;2022-08-24T16:36:03;25.97;;;2.50;;
20476;SDS011;10397;50.948;11.092;2022-08-24T16:38:34;6.35;;;2.00;;
20476;SDS011;10397;50.948;11.092;2022-08-24T16:41:05;13.43;;;2.30;;
20476;SDS011;10397;50.948;11.092;2022-08-24T16:43:36;14.65;;;2.30;;
20476;SDS011;10397;50.948;11.092;2022-08-24T16:46:07;9.88;;;1.55;;
20476;SDS011;10397;50.948;11.092;2022-08-24T16:48:38;3.17;;;1.30;;
20476;SDS011;10397;50.948;11.092;2022-08-24T16:51:08;4.13;;;1.57;;
20476;SDS011;10397;50.948;11.092;2022-08-24T16:53:40;11.18;;;1.80;;
20476;SDS011;10397;50.948;11.092;2022-08-24T16:56:11;14.58;;;2.05;;
20476;SDS011;10397;50.948;11.092;2022-08-24T16:58:44;9.83;;;1.57;;
20476;SDS011;10397;50.948;11.092;2022-08-24T17:01:13;11.90;;;1.97;;
20476;SDS011;10397;50.948;11.092;2022-08-24T17:03:44;7.25;;;2.05;;
20476;SDS011;10397;50.948;11.092;2022-08-24T17:06:15;5.40;;;1.82;;
20476;SDS011;10397;50.948;11.092;2022-08-24T17:08:46;3.55;;;1.57;;
20476;SDS011;10397;50.948;11.092;2022-08-24T17:11:18;3.40;;;1.30;;
20476;SDS011;10397;50.948;11.092;2022-08-24T17:13:49;5.22;;;1.70;;
20476;SDS011;10397;50.948;11.092;2022-08-24T17:16:21;2.35;;;1.22;;
20476;SDS011;10397;50.948;11.092;2022-08-24T17:18:52;2.98;;;1.50;;
20476;SDS011;10397;50.948;11.092;2022-08-24T17:21:24;6.00;;;1.52;;
20476;SDS011;10397;50.948;11.092;2022-08-24T17:23:55;6.50;;;1.55;;
20476;SDS011;10397;50.948;11.092;2022-08-24T17:26:26;1.90;;;1.50;;
20476;SDS011;10397;50.948;11.092;2022-08-24T17:28:58;4.12;;;1.32;;
20476;SDS011;10397;50.948;11.092;2022-08-24T17:31:29;5.67;;;1.72;;
20476;SDS011;10397;50.948;11.092;2022-08-24T17:34:01;3.70;;;1.60;;
20476;SDS011;10397;50.948;11.092;2022-08-24T17:36:31;3.00;;;1.73;;
20476;SDS011;10397;50.948;11.092;2022-08-24T17:39:04;4.08;;;1.50;;
20476;SDS011;10397;50.948;11.092;2022-08-24T17:41:33;2.67;;;1.80;;
20476;SDS011;10397;50.948;11.092;2022-08-24T17:44:04;6.97;;;1.85;;
20476;SDS011;10397;50.948;11.092;2022-08-24T17:46:35;5.62;;;1.60;;
20476;SDS011;10397;50.948;11.092;2022-08-24T17:49:07;3.65;;;1.50;;
20476;SDS011;10397;50.948;11.092;2022-08-24T17:51:38;6.25;;;1.80;;
20476;SDS011;10397;50.948;11.092;2022-08-24T17:54:09;6.12;;;2.25;;
20476;SDS011;10397;50.948;11.092;2022-08-24T17:56:41;8.07;;;1.73;;